Time;durP1;ratioP1;P1;durP2;ratioP2;P2;SDS_P1;SDS_P2;PMS_P1;PMS_P2;Temp;Humidity;BMP_temperature;BMP_pressure;BME280_temperature;BME280_humidity;BME280_pressure;Samples;Min_cycle;Max_cycle;Signal;HPM_P1;HPM_P2
2021/10/21 00:01:54;;;;;;;5.67;5.10;;;17.50;99.90;;;;;;5051841;28;20788;-50
2021/10/21 00:04:21;;;;;;;5.90;4.40;;;17.50;99.90;;;;;;5051551;28;20475;-49
2021/10/21 00:06:49;;;;;;;5.37;4.57;;;17.50;99.90;;;;;;5052201;28;20484;-48
2021/10/21 00:09:16;;;;;;;5.47;4.97;;;17.40;99.90;;;;;;5051888;28;20804;-49
2021/10/21 00:11:43;;;;;;;5.40;4.90;;;17.40;99.90;;;;;;5051866;28;20441;-49
2021/10/21 00:14:10;;;;;;;6.20;4.50;;;17.40;99.90;;;;;;5052273;28;20990;-49
2021/10/21 00:16:36;;;;;;;5.30;4.43;;;17.40;99.90;;;;;;5051887;28;20437;-49
2021/10/21 00:19:04;;;;;;;5.43;4.93;;;17.40;99.90;;;;;;5051223;28;20519;-49
2021/10/21 00:21:31;;;;;;;5.03;4.53;;;17.40;99.90;;;;;;5051509;28;20447;-50
2021/10/21 00:23:58;;;;;;;5.70;4.30;;;17.40;99.90;;;;;;5051507;28;20437;-49
2021/10/21 00:26:24;;;;;;;5.30;4.70;;;17.40;99.90;;;;;;5051366;28;20441;-49
2021/10/21 00:28:52;;;;;;;4.53;4.13;;;17.40;99.90;;;;;;5051135;28;20435;-50
2021/10/21 00:31:19;;;;;;;6.50;4.23;;;17.40;99.90;;;;;;5051292;28;20429;-50
2021/10/21 00:33:46;;;;;;;7.87;4.43;;;17.50;99.90;;;;;;5051321;28;20464;-49
2021/10/21 00:36:14;;;;;;;4.97;4.47;;;17.40;99.90;;;;;;5051293;28;20429;-49
2021/10/21 00:38:40;;;;;;;5.90;4.87;;;17.40;99.90;;;;;;5051397;28;20445;-49
2021/10/21 00:41:07;;;;;;;7.93;4.50;;;17.40;99.90;;;;;;5052166;28;20432;-49
2021/10/21 00:43:37;;;;;;;5.60;4.33;;;17.40;99.90;;;;;;5051689;28;20487;-50
2021/10/21 00:46:05;;;;;;;5.93;4.70;;;17.60;99.90;;;;;;5051971;28;20481;-49
2021/10/21 00:48:32;;;;;;;4.93;4.50;;;17.40;99.90;;;;;;5051241;28;20432;-50
2021/10/21 00:50:59;;;;;;;4.73;4.30;;;17.40;99.90;;;;;;5051298;28;20501;-49
2021/10/21 00:53:29;;;;;;;9.43;4.20;;;17.40;99.90;;;;;;5054702;28;20469;-50
2021/10/21 00:55:56;;;;;;;5.30;4.80;;;17.50;99.90;;;;;;5054855;28;20439;-49
2021/10/21 00:58:23;;;;;;;5.00;4.60;;;17.30;99.90;;;;;;5054799;28;20746;-49
2021/10/21 01:00:49;;;;;;;4.53;4.13;;;17.40;99.90;;;;;;5055212;28;20443;-49
2021/10/21 01:03:16;;;;;;;5.17;4.67;;;17.40;99.90;;;;;;5054714;28;20476;-49
2021/10/21 01:05:43;;;;;;;4.50;4.10;;;17.40;99.90;;;;;;5054632;28;20456;-50
2021/10/21 01:08:09;;;;;;;9.17;4.80;;;17.40;99.90;;;;;;5054124;28;20987;-49
2021/10/21 01:10:38;;;;;;;4.83;4.33;;;17.40;99.90;;;;;;5054644;28;20434;-49
2021/10/21 01:13:06;;;;;;;5.17;4.57;;;17.30;99.90;;;;;;5054760;28;20431;-49
2021/10/21 01:15:33;;;;;;;5.43;4.90;;;17.40;99.90;;;;;;5054557;28;20445;-49
2021/10/21 01:18:00;;;;;;;5.43;4.70;;;17.40;99.90;;;;;;5054294;28;20440;-49
2021/10/21 01:20:28;;;;;;;5.47;4.67;;;17.20;99.90;;;;;;5054835;28;20433;-49
2021/10/21 01:22:55;;;;;;;5.20;4.60;;;17.40;99.90;;;;;;5054825;28;20840;-49
2021/10/21 01:25:22;;;;;;;6.17;5.07;;;17.40;99.90;;;;;;5054834;28;20481;-49
2021/10/21 01:27:50;;;;;;;5.10;4.63;;;17.40;99.90;;;;;;5054246;28;20509;-49
2021/10/21 01:30:18;;;;;;;4.67;4.27;;;17.40;99.90;;;;;;5054327;28;20815;-50
2021/10/21 01:32:45;;;;;;;5.77;5.17;;;17.40;99.90;;;;;;5054185;28;20961;-50
2021/10/21 01:35:12;;;;;;;5.20;4.70;;;17.40;99.90;;;;;;5054649;28;20774;-50
2021/10/21 01:37:41;;;;;;;7.40;5.23;;;17.40;99.90;;;;;;5053826;28;20925;-50
2021/10/21 01:40:10;;;;;;;4.80;4.40;;;17.40;99.90;;;;;;5054330;28;20448;-50
2021/10/21 01:42:37;;;;;;;8.07;5.17;;;17.40;99.90;;;;;;5054030;28;20449;-50
2021/10/21 01:45:14;;;;;;;7.77;4.53;;;17.40;99.90;;;;;;5054052;28;20548;-50
2021/10/21 01:47:40;;;;;;;5.87;5.27;;;17.40;99.90;;;;;;5053820;28;20430;-49
2021/10/21 01:50:07;;;;;;;4.53;4.13;;;17.40;99.90;;;;;;5054141;28;20776;-50
2021/10/21 01:52:34;;;;;;;9.80;4.50;;;17.40;99.90;;;;;;5053345;28;20473;-49
2021/10/21 01:55:02;;;;;;;4.60;4.20;;;17.40;99.90;;;;;;5052803;28;20429;-49
2021/10/21 01:57:29;;;;;;;5.97;4.30;;;17.40;99.90;;;;;;5052620;28;20437;-49
2021/10/21 01:59:55;;;;;;;4.70;4.30;;;17.50;99.90;;;;;;5052449;28;20445;-50
2021/10/21 02:02:22;;;;;;;4.47;4.07;;;17.40;99.90;;;;;;5053157;28;20453;-49
2021/10/21 02:04:48;;;;;;;4.50;3.67;;;17.40;99.90;;;;;;5052339;28;20472;-49
2021/10/21 02:07:15;;;;;;;4.13;3.83;;;17.40;99.90;;;;;;5053042;28;20431;-49
2021/10/21 02:09:42;;;;;;;4.87;4.13;;;17.40;99.90;;;;;;5052337;28;20412;-49
2021/10/21 02:12:10;;;;;;;4.73;4.00;;;17.40;99.90;;;;;;5052551;28;20464;-49
2021/10/21 02:14:36;;;;;;;5.00;4.00;;;17.40;99.90;;;;;;5052448;28;20456;-49
2021/10/21 02:17:03;;;;;;;3.93;3.50;;;17.50;99.90;;;;;;5052432;28;20435;-49
2021/10/21 02:19:30;;;;;;;4.70;3.77;;;17.40;99.90;;;;;;5052024;28;20443;-49
2021/10/21 02:21:57;;;;;;;3.70;3.40;;;17.40;99.90;;;;;;5052162;28;20517;-49
2021/10/21 02:24:23;;;;;;;4.30;3.90;;;17.40;99.90;;;;;;5052549;28;20436;-50
2021/10/21 02:26:50;;;;;;;4.97;3.20;;;17.40;99.90;;;;;;5052357;28;20433;-49
2021/10/21 02:29:18;;;;;;;7.03;2.80;;;17.40;99.90;;;;;;5034279;28;20456;-50
2021/10/21 02:31:44;;;;;;;3.10;2.80;;;17.40;99.90;;;;;;5052497;28;20921;-49
2021/10/21 02:34:11;;;;;;;7.07;3.30;;;17.40;99.90;;;;;;5052232;28;20918;-49
2021/10/21 02:36:38;;;;;;;3.90;2.80;;;17.40;99.90;;;;;;5052480;28;20452;-50
2021/10/21 02:39:05;;;;;;;4.30;2.93;;;17.40;99.90;;;;;;5051902;28;20444;-50
2021/10/21 02:41:32;;;;;;;2.60;2.40;;;17.40;99.90;;;;;;5051997;28;20436;-49
2021/10/21 02:43:58;;;;;;;5.00;2.80;;;17.40;99.90;;;;;;5051792;28;20444;-49
2021/10/21 02:46:26;;;;;;;2.80;2.50;;;17.40;99.90;;;;;;5052298;28;20499;-48
2021/10/21 02:48:53;;;;;;;3.50;2.60;;;17.50;99.90;;;;;;5051771;28;20445;-49
2021/10/21 02:51:20;;;;;;;3.17;2.37;;;17.60;99.90;;;;;;5053462;28;20441;-49
2021/10/21 02:53:48;;;;;;;2.53;2.33;;;17.50;99.90;;;;;;5057391;22;989460;-50
2021/10/21 02:56:15;;;;;;;3.00;2.70;;;17.50;99.90;;;;;;5072295;28;20854;-50
2021/10/21 02:58:41;;;;;;;2.50;2.30;;;17.40;99.90;;;;;;5071808;28;20958;-50
2021/10/21 03:01:08;;;;;;;2.97;2.47;;;17.50;99.90;;;;;;5071990;28;20978;-51
2021/10/21 03:03:36;;;;;;;3.13;2.63;;;17.40;99.90;;;;;;5071947;28;20452;-50
2021/10/21 03:06:02;;;;;;;3.10;2.60;;;17.40;99.90;;;;;;5071848;28;20818;-50
2021/10/21 03:08:29;;;;;;;4.80;2.40;;;17.40;99.90;;;;;;5071691;28;20524;-50
2021/10/21 03:10:56;;;;;;;2.93;2.60;;;17.40;99.90;;;;;;5071765;28;20783;-50
2021/10/21 03:13:22;;;;;;;3.63;2.43;;;17.40;99.90;;;;;;5071729;28;20453;-51
2021/10/21 03:15:49;;;;;;;3.70;3.40;;;17.60;99.90;;;;;;5070974;28;20440;-50
2021/10/21 03:18:16;;;;;;;2.60;2.40;;;17.50;99.90;;;;;;5071520;28;20436;-49
2021/10/21 03:20:43;;;;;;;3.30;2.07;;;17.40;99.90;;;;;;5071709;28;20929;-50
2021/10/21 03:23:11;;;;;;;3.10;2.33;;;17.40;99.90;;;;;;5071693;28;20447;-51
2021/10/21 03:25:38;;;;;;;3.03;2.03;;;17.40;99.90;;;;;;5071414;28;20487;-50
2021/10/21 03:28:05;;;;;;;6.13;2.43;;;17.40;99.90;;;;;;5071362;28;20441;-50
2021/10/21 03:30:31;;;;;;;4.57;2.83;;;17.40;99.90;;;;;;5071524;28;20442;-50
2021/10/21 03:32:58;;;;;;;3.23;2.43;;;17.40;99.90;;;;;;5071204;28;20454;-50
2021/10/21 03:35:25;;;;;;;3.60;3.30;;;17.40;99.90;;;;;;5071346;28;20436;-50
2021/10/21 03:37:53;;;;;;;2.60;2.40;;;17.40;99.90;;;;;;5071015;28;20435;-50
2021/10/21 03:40:20;;;;;;;2.60;2.40;;;17.40;99.90;;;;;;5071696;28;20444;-50
2021/10/21 03:42:46;;;;;;;2.40;2.17;;;17.40;99.90;;;;;;5071049;28;20455;-50
2021/10/21 03:45:13;;;;;;;3.73;2.33;;;17.00;99.90;;;;;;5071205;28;20472;-50
2021/10/21 03:47:39;;;;;;;5.50;2.40;;;17.40;99.90;;;;;;5071006;28;20442;-49
2021/10/21 03:50:07;;;;;;;5.93;2.93;;;17.40;99.90;;;;;;5071156;28;20449;-50
2021/10/21 03:52:34;;;;;;;3.10;2.80;;;17.40;99.90;;;;;;5070901;28;20471;-50
2021/10/21 03:55:02;;;;;;;3.57;2.70;;;17.50;99.90;;;;;;5071017;28;20432;-49
2021/10/21 03:57:28;;;;;;;2.60;2.10;;;17.40;99.90;;;;;;5071156;28;20428;-50
2021/10/21 03:59:55;;;;;;;2.90;2.20;;;17.40;99.90;;;;;;5070666;28;20445;-49
2021/10/21 04:02:22;;;;;;;3.40;1.80;;;17.40;99.90;;;;;;5071051;28;20463;-51
2021/10/21 04:04:48;;;;;;;3.40;2.10;;;17.50;99.90;;;;;;5071158;28;20505;-50
2021/10/21 04:07:15;;;;;;;5.10;2.00;;;17.50;99.90;;;;;;5052950;28;20487;-51
2021/10/21 04:09:41;;;;;;;5.57;2.40;;;17.40;99.90;;;;;;5070900;28;20443;-50
2021/10/21 04:12:10;;;;;;;2.50;2.07;;;17.60;99.90;;;;;;5071033;28;20788;-50
2021/10/21 04:14:36;;;;;;;2.60;1.90;;;17.50;99.90;;;;;;5070860;28;20429;-50
2021/10/21 04:17:03;;;;;;;2.80;2.13;;;17.50;99.90;;;;;;5071103;28;20459;-49
2021/10/21 04:19:30;;;;;;;2.63;2.43;;;17.50;99.90;;;;;;5070428;28;20511;-50
2021/10/21 04:21:57;;;;;;;2.80;1.90;;;17.60;99.90;;;;;;5070842;28;20945;-49
2021/10/21 04:24:23;;;;;;;2.60;1.93;;;17.50;99.90;;;;;;5070701;28;20893;-49
2021/10/21 04:26:50;;;;;;;4.00;2.00;;;17.50;99.90;;;;;;5072138;28;20525;-50
2021/10/21 04:29:18;;;;;;;8.40;2.10;;;17.50;99.90;;;;;;5074729;28;20428;-49
2021/10/21 04:31:45;;;;;;;2.17;1.57;;;17.40;99.90;;;;;;5057099;28;20452;-49
2021/10/21 04:34:12;;;;;;;5.60;2.20;;;17.30;99.90;;;;;;5074908;28;20456;-50
2021/10/21 04:36:39;;;;;;;4.13;1.50;;;17.30;99.90;;;;;;5074811;28;20440;-49
2021/10/21 04:39:06;;;;;;;2.53;1.60;;;17.20;99.90;;;;;;5074308;28;20430;-49
2021/10/21 04:41:33;;;;;;;11.63;7.83;;;17.10;99.90;;;;;;5074430;28;20855;-49
2021/10/21 04:43:59;;;;;;;4.63;1.60;;;17.10;99.90;;;;;;5074408;28;20455;-49
2021/10/21 04:46:27;;;;;;;2.13;1.40;;;17.00;99.90;;;;;;5074332;28;20478;-50
2021/10/21 04:48:54;;;;;;;2.20;1.50;;;17.00;99.90;;;;;;5073813;28;20430;-50
2021/10/21 04:51:21;;;;;;;3.60;1.90;;;16.60;99.90;;;;;;5074325;28;20743;-49
2021/10/21 04:53:47;;;;;;;7.53;2.40;;;16.90;99.90;;;;;;5074382;28;20482;-49
2021/10/21 04:56:14;;;;;;;1.90;1.63;;;17.10;99.90;;;;;;5074663;28;20428;-49
2021/10/21 04:58:40;;;;;;;3.10;1.30;;;16.90;99.90;;;;;;5074497;28;20444;-50
2021/10/21 05:01:07;;;;;;;3.03;1.80;;;16.80;99.90;;;;;;5074240;28;20807;-50
2021/10/21 05:03:35;;;;;;;1.70;1.13;;;16.80;99.90;;;;;;5074181;28;20454;-49
2021/10/21 05:06:02;;;;;;;5.87;2.60;;;16.70;99.90;;;;;;5073994;28;20448;-50
2021/10/21 05:08:28;;;;;;;3.40;1.47;;;16.60;99.90;;;;;;5073559;28;20443;-50
2021/10/21 05:10:55;;;;;;;3.20;1.53;;;16.60;99.90;;;;;;5074061;28;20822;-50
2021/10/21 05:13:21;;;;;;;3.43;1.37;;;16.60;99.90;;;;;;5073597;28;20854;-51
2021/10/21 05:15:48;;;;;;;1.77;1.17;;;16.60;99.90;;;;;;5073736;28;20414;-50
2021/10/21 05:18:15;;;;;;;3.77;2.10;;;16.60;99.90;;;;;;5073459;28;20435;-50
2021/10/21 05:20:43;;;;;;;2.90;1.77;;;16.90;99.90;;;;;;5073821;28;20526;-50
2021/10/21 05:23:10;;;;;;;1.77;1.33;;;16.70;99.90;;;;;;5073605;28;20420;-50
2021/10/21 05:25:36;;;;;;;3.33;1.37;;;16.60;99.90;;;;;;5073280;28;20501;-49
2021/10/21 05:28:03;;;;;;;2.07;1.50;;;16.60;99.90;;;;;;5073071;28;20442;-49
2021/10/21 05:30:31;;;;;;;2.53;1.90;;;16.60;99.90;;;;;;5073390;28;20465;-50
2021/10/21 05:32:58;;;;;;;8.80;3.60;;;16.50;99.90;;;;;;5073451;28;20962;-50
2021/10/21 05:35:25;;;;;;;3.20;1.57;;;16.50;99.90;;;;;;5073450;28;20619;-50
2021/10/21 05:37:53;;;;;;;2.17;1.47;;;16.50;99.90;;;;;;5072420;28;20919;-50
2021/10/21 05:40:20;;;;;;;4.63;1.37;;;16.50;99.90;;;;;;5072635;28;20435;-50
2021/10/21 05:42:47;;;;;;;3.50;1.80;;;16.90;99.90;;;;;;5072605;28;20458;-50
2021/10/21 05:45:14;;;;;;;4.30;2.03;;;16.50;99.90;;;;;;5055165;28;20448;-50
2021/10/21 05:47:42;;;;;;;3.07;1.50;;;16.50;99.90;;;;;;5072916;28;20481;-50
2021/10/21 05:50:10;;;;;;;1.80;1.30;;;16.80;99.90;;;;;;5073208;28;20924;-50
2021/10/21 05:52:37;;;;;;;2.50;1.70;;;16.60;99.90;;;;;;5073339;28;20477;-50
2021/10/21 05:55:06;;;;;;;3.47;3.17;;;16.50;99.90;;;;;;5073125;28;20525;-50
2021/10/21 05:57:33;;;;;;;4.63;1.63;;;16.60;99.90;;;;;;5073409;28;20435;-50
2021/10/21 06:00:00;;;;;;;1.60;1.30;;;16.60;99.90;;;;;;5072824;28;20445;-50
2021/10/21 06:02:26;;;;;;;4.30;2.20;;;16.60;99.90;;;;;;5072859;28;20791;-49
2021/10/21 06:04:53;;;;;;;1.70;1.27;;;16.60;99.90;;;;;;5073088;28;20441;-49
2021/10/21 06:07:20;;;;;;;2.70;2.30;;;16.60;99.90;;;;;;5072490;28;20487;-49
2021/10/21 06:09:47;;;;;;;2.80;2.50;;;16.60;99.90;;;;;;5072311;28;20442;-49
2021/10/21 06:12:15;;;;;;;2.97;1.70;;;16.70;99.90;;;;;;5072770;28;20963;-50
2021/10/21 06:14:41;;;;;;;4.10;2.03;;;17.00;99.90;;;;;;5072580;28;20522;-49
2021/10/21 06:17:08;;;;;;;2.93;2.10;;;16.70;99.90;;;;;;5072514;28;20892;-50
2021/10/21 06:19:35;;;;;;;3.90;1.80;;;16.70;99.90;;;;;;5054483;28;20535;-49
2021/10/21 06:22:05;;;;;;;3.93;1.97;;;16.70;99.90;;;;;;5071953;28;20449;-49
2021/10/21 06:24:32;;;;;;;4.47;1.60;;;16.80;99.90;;;;;;5072321;28;20428;-51
2021/10/21 06:26:59;;;;;;;3.13;1.23;;;16.80;99.90;;;;;;5071990;28;20484;-50
2021/10/21 06:29:27;;;;;;;3.17;1.53;;;16.90;99.90;;;;;;5071507;28;20534;-50
2021/10/21 06:31:54;;;;;;;4.10;1.60;;;16.80;99.90;;;;;;5072741;28;20820;-50
2021/10/21 06:34:21;;;;;;;2.17;1.40;;;16.80;99.90;;;;;;5072329;28;20435;-50
2021/10/21 06:36:48;;;;;;;2.30;1.30;;;16.80;99.90;;;;;;5071931;28;20450;-49
2021/10/21 06:39:14;;;;;;;5.23;1.80;;;16.80;99.90;;;;;;5071481;28;20541;-50
2021/10/21 06:41:41;;;;;;;1.90;1.13;;;17.00;99.90;;;;;;5071906;28;20435;-50
2021/10/21 06:44:08;;;;;;;3.20;1.40;;;16.90;99.90;;;;;;5071847;28;20462;-50
2021/10/21 06:46:36;;;;;;;2.97;1.27;;;17.10;99.90;;;;;;5071815;28;20838;-50
2021/10/21 06:49:03;;;;;;;3.77;1.30;;;16.90;99.90;;;;;;5071161;28;20488;-50
2021/10/21 06:51:29;;;;;;;5.70;1.50;;;16.30;99.90;;;;;;5071305;28;20477;-50
2021/10/21 06:53:56;;;;;;;3.17;1.90;;;17.00;99.90;;;;;;5071830;28;20459;-50
2021/10/21 06:56:23;;;;;;;3.33;1.50;;;17.00;99.90;;;;;;5071530;28;20789;-51
2021/10/21 06:58:49;;;;;;;6.63;2.03;;;17.10;99.90;;;;;;5071371;28;20429;-51
2021/10/21 07:01:16;;;;;;;4.43;1.63;;;17.10;99.90;;;;;;5071513;28;20441;-50
2021/10/21 07:03:44;;;;;;;2.57;1.40;;;17.20;99.90;;;;;;5071413;28;20495;-50
2021/10/21 07:06:11;;;;;;;4.10;1.50;;;17.10;99.90;;;;;;5071588;28;20442;-51
2021/10/21 07:08:39;;;;;;;2.53;1.30;;;17.10;99.90;;;;;;5071409;28;20783;-49
2021/10/21 07:11:06;;;;;;;6.67;2.20;;;17.00;99.90;;;;;;5054278;28;20463;-49
2021/10/21 07:13:33;;;;;;;4.83;1.63;;;17.00;99.90;;;;;;5071159;28;20534;-50
2021/10/21 07:15:59;;;;;;;5.43;1.80;;;16.90;99.90;;;;;;5070950;28;20443;-50
2021/10/21 07:18:26;;;;;;;5.20;1.37;;;16.90;99.90;;;;;;5071184;28;20431;-50
2021/10/21 07:20:55;;;;;;;4.30;1.37;;;16.80;99.90;;;;;;5071419;28;20458;-50
2021/10/21 07:23:22;;;;;;;3.60;1.40;;;16.80;99.90;;;;;;5071290;28;20513;-50
2021/10/21 07:25:49;;;;;;;4.17;1.30;;;16.70;99.90;;;;;;5053444;28;20451;-50
2021/10/21 07:28:18;;;;;;;4.03;1.40;;;16.70;99.90;;;;;;5052866;28;20481;-50
2021/10/21 07:30:45;;;;;;;4.47;1.37;;;16.60;99.90;;;;;;5071194;28;20999;-49
2021/10/21 07:33:12;;;;;;;7.27;1.30;;;16.60;99.90;;;;;;5070910;28;20532;-51
2021/10/21 07:35:39;;;;;;;6.03;1.40;;;16.60;99.90;;;;;;5071391;28;20431;-51
2021/10/21 07:38:07;;;;;;;9.00;2.07;;;16.60;99.90;;;;;;5070548;28;20493;-51
2021/10/21 07:40:34;;;;;;;5.87;1.40;;;16.60;99.90;;;;;;5071320;28;20499;-50
2021/10/21 07:43:00;;;;;;;4.23;1.20;;;16.60;99.70;;;;;;5070963;28;20460;-51
2021/10/21 07:45:27;;;;;;;7.90;2.13;;;16.60;99.40;;;;;;5070616;28;20656;-50
2021/10/21 07:47:54;;;;;;;10.20;1.50;;;16.60;98.40;;;;;;5052441;28;20587;-50
2021/10/21 07:50:21;;;;;;;5.93;2.17;;;16.60;98.50;;;;;;5071012;28;20437;-50
2021/10/21 07:52:48;;;;;;;4.07;1.37;;;16.60;97.90;;;;;;5070896;28;20512;-50
2021/10/21 07:55:16;;;;;;;6.13;1.60;;;16.60;97.60;;;;;;5053094;28;20814;-50
2021/10/21 07:57:43;;;;;;;5.83;1.30;;;16.60;97.70;;;;;;5070452;28;20451;-50
2021/10/21 08:00:12;;;;;;;3.30;1.40;;;16.70;97.30;;;;;;5071257;28;20519;-50
2021/10/21 08:02:42;;;;;;;4.43;1.50;;;16.70;97.30;;;;;;5073760;28;20458;-50
2021/10/21 08:05:10;;;;;;;11.90;2.23;;;16.70;97.10;;;;;;5056987;28;20454;-50
2021/10/21 08:07:39;;;;;;;11.73;1.60;;;16.70;96.60;;;;;;5056477;28;20563;-50
2021/10/21 08:10:09;;;;;;;6.13;1.30;;;16.70;96.80;;;;;;5074816;28;20439;-50
2021/10/21 08:12:37;;;;;;;6.00;1.67;;;16.80;96.60;;;;;;5074707;28;20455;-50
2021/10/21 08:15:08;;;;;;;5.60;1.40;;;16.80;96.40;;;;;;5075137;28;20929;-50
2021/10/21 08:17:35;;;;;;;6.87;1.03;;;16.80;96.00;;;;;;5074940;28;20485;-51
2021/10/21 08:20:02;;;;;;;5.00;1.80;;;16.90;96.00;;;;;;5074476;28;20440;-49
2021/10/21 08:22:29;;;;;;;4.67;1.40;;;16.90;95.90;;;;;;5074622;28;20853;-50
2021/10/21 08:24:58;;;;;;;4.83;1.40;;;16.90;95.70;;;;;;5074483;28;20443;-51
2021/10/21 08:27:25;;;;;;;10.20;1.60;;;17.00;95.40;;;;;;5056616;28;20508;-49
2021/10/21 08:29:53;;;;;;;5.37;1.70;;;17.10;95.40;;;;;;5074667;28;20934;-50
2021/10/21 08:32:20;;;;;;;4.40;1.37;;;17.10;95.00;;;;;;5056575;28;20529;-50
2021/10/21 08:34:47;;;;;;;5.77;2.60;;;17.10;95.00;;;;;;5056196;28;20450;-51
2021/10/21 08:37:14;;;;;;;4.00;0.97;;;17.10;94.60;;;;;;5074791;28;20463;-50
2021/10/21 08:39:41;;;;;;;14.83;1.57;;;17.20;94.20;;;;;;5074497;28;20461;-49
2021/10/21 08:42:09;;;;;;;11.60;1.90;;;17.20;94.40;;;;;;5074796;28;20440;-51
2021/10/21 08:44:37;;;;;;;5.63;1.43;;;17.20;94.20;;;;;;5074792;28;20470;-50
2021/10/21 08:47:08;;;;;;;10.50;1.77;;;17.30;94.30;;;;;;5056353;28;20466;-50
2021/10/21 08:49:39;;;;;;;4.40;1.30;;;17.30;93.90;;;;;;5074577;28;20413;-50
2021/10/21 08:52:06;;;;;;;3.60;1.43;;;17.30;93.50;;;;;;5074356;28;20442;-51
2021/10/21 08:54:35;;;;;;;12.33;1.17;;;17.40;93.50;;;;;;5116332;22;20521;-50
2021/10/21 08:57:02;;;;;;;6.77;1.70;;;17.40;93.70;;;;;;5094648;28;20431;-49
2021/10/21 08:59:32;;;;;;;12.60;1.90;;;17.50;93.50;;;;;;5094336;28;20430;-50
2021/10/21 09:02:09;;;;;;;2.30;1.07;;;17.50;93.30;;;;;;5095273;28;20492;-49
2021/10/21 09:05:01;;;;;;;5.60;1.10;;;17.50;93.20;;;;;;5076800;28;20484;-49
2021/10/21 09:10:14;;;;;;;6.77;1.27;;;17.60;93.30;;;;;;5094301;28;20903;-48
2021/10/21 09:12:42;;;;;;;4.07;1.10;;;17.60;93.20;;;;;;5074899;28;20456;-48
2021/10/21 09:15:15;;;;;;;7.40;1.00;;;17.60;93.20;;;;;;5074907;28;20458;-48
2021/10/21 09:17:42;;;;;;;4.97;1.00;;;17.50;93.20;;;;;;5094101;28;20435;-48
2021/10/21 09:20:37;;;;;;;7.03;1.27;;;17.50;93.00;;;;;;5075146;28;20887;-48
2021/10/21 09:23:08;;;;;;;4.57;1.23;;;17.50;93.10;;;;;;5075526;28;20532;-48
2021/10/21 09:25:37;;;;;;;4.63;1.40;;;17.50;93.40;;;;;;5075429;28;20458;-48
2021/10/21 09:28:21;;;;;;;15.43;1.47;;;17.50;93.20;;;;;;5093144;28;20585;-48
2021/10/21 09:30:57;;;;;;;7.93;1.47;;;17.50;93.30;;;;;;5075350;28;20451;-47
2021/10/21 09:33:40;;;;;;;9.00;1.20;;;17.40;93.40;;;;;;5093549;28;20455;-48
2021/10/21 09:36:08;;;;;;;12.13;1.10;;;17.40;93.50;;;;;;5093701;28;20471;-47
2021/10/21 09:38:50;;;;;;;4.10;1.50;;;17.40;93.50;;;;;;5075058;28;20461;-49
2021/10/21 09:41:18;;;;;;;6.37;1.60;;;17.30;94.60;;;;;;5093619;28;20446;-47
2021/10/21 09:43:46;;;;;;;3.47;0.93;;;17.30;95.10;;;;;;5093389;28;20455;-48
2021/10/21 09:46:40;;;;;;;13.10;1.43;;;17.30;95.10;;;;;;5075202;28;20539;-49
2021/10/21 09:49:21;;;;;;;8.80;1.20;;;17.20;94.40;;;;;;5092457;28;20996;-47
2021/10/21 09:51:50;;;;;;;5.23;1.20;;;17.20;94.30;;;;;;5093178;28;20462;-48
2021/10/21 09:54:17;;;;;;;3.80;1.60;;;17.20;94.20;;;;;;5093156;28;20475;-47
2021/10/21 09:56:56;;;;;;;4.33;1.83;;;17.20;93.90;;;;;;5092991;28;20820;-48
2021/10/21 09:59:25;;;;;;;7.43;2.03;;;17.20;93.80;;;;;;5092984;28;20847;-47
2021/10/21 10:01:56;;;;;;;8.20;1.27;;;17.30;93.80;;;;;;5093269;28;20859;-48
2021/10/21 10:04:24;;;;;;;23.00;2.50;;;17.30;93.60;;;;;;5093390;28;20448;-47
2021/10/21 10:06:58;;;;;;;7.23;1.30;;;17.30;93.60;;;;;;5092885;28;20427;-47
2021/10/21 10:09:30;;;;;;;6.60;1.60;;;17.30;93.40;;;;;;5074594;28;20502;-47
2021/10/21 10:11:58;;;;;;;8.63;1.47;;;17.30;93.50;;;;;;5093377;28;20429;-46
2021/10/21 10:14:26;;;;;;;10.00;2.27;;;17.30;93.70;;;;;;5075566;28;20467;-47
2021/10/21 10:16:52;;;;;;;9.80;1.20;;;17.30;93.70;;;;;;5093146;28;20440;-47
2021/10/21 10:19:22;;;;;;;5.93;1.77;;;17.30;93.40;;;;;;5092490;28;20570;-47
2021/10/21 10:21:52;;;;;;;5.13;1.40;;;17.40;93.90;;;;;;5092899;28;20440;-47
2021/10/21 10:24:27;;;;;;;12.57;2.60;;;17.40;94.00;;;;;;5092797;28;20469;-46
2021/10/21 10:26:56;;;;;;;10.67;3.53;;;17.40;94.50;;;;;;5093387;28;20439;-46
2021/10/21 10:29:45;;;;;;;12.10;1.93;;;17.40;94.90;;;;;;5093633;28;20426;-46
2021/10/21 10:32:40;;;;;;;8.37;1.70;;;17.50;95.10;;;;;;5094003;28;20442;-48
2021/10/21 10:35:09;;;;;;;9.33;2.07;;;17.40;95.80;;;;;;5093305;28;20433;-46
2021/10/21 10:37:43;;;;;;;7.53;1.90;;;17.40;96.20;;;;;;5092139;28;20428;-48
2021/10/21 10:40:12;;;;;;;7.67;1.20;;;17.40;96.50;;;;;;5074373;28;20804;-48
2021/10/21 10:43:02;;;;;;;9.40;1.40;;;17.30;96.80;;;;;;5092139;28;20490;-47
2021/10/21 10:45:44;;;;;;;5.73;1.63;;;17.30;96.50;;;;;;5092325;28;20435;-47
2021/10/21 10:48:12;;;;;;;10.13;1.50;;;17.30;96.60;;;;;;5073843;28;20467;-48
2021/10/21 10:50:56;;;;;;;2.60;1.00;;;17.30;96.60;;;;;;5093211;28;20407;-47
2021/10/21 10:53:50;;;;;;;5.60;1.67;;;17.30;96.70;;;;;;5092165;28;20475;-47
2021/10/21 10:56:45;;;;;;;8.23;1.33;;;17.30;97.60;;;;;;5092480;28;21155;-47
2021/10/21 10:59:22;;;;;;;9.60;2.57;;;17.20;98.20;;;;;;5073241;28;20443;-47
2021/10/21 11:01:51;;;;;;;3.23;1.00;;;17.10;99.90;;;;;;5092005;28;20424;-48
2021/10/21 11:04:55;;;;;;;3.10;0.90;;;16.90;99.90;;;;;;5092209;28;20611;-47
2021/10/21 11:07:24;;;;;;;1.67;1.17;;;16.70;99.90;;;;;;5092281;28;20430;-48
2021/10/21 11:09:53;;;;;;;2.97;1.00;;;16.60;99.90;;;;;;5091723;28;20462;-48
2021/10/21 11:12:21;;;;;;;2.80;1.03;;;16.60;99.90;;;;;;5091773;28;20442;-46
2021/10/21 11:14:54;;;;;;;4.20;0.80;;;16.60;99.90;;;;;;5091701;28;20990;-47
2021/10/21 11:17:44;;;;;;;2.37;0.80;;;16.60;99.90;;;;;;5091877;28;20502;-46
2021/10/21 11:20:38;;;;;;;1.50;0.90;;;16.50;99.90;;;;;;5091789;28;20521;-47
2021/10/21 11:23:06;;;;;;;4.80;0.70;;;16.50;99.90;;;;;;5091413;28;20500;-47
2021/10/21 11:25:37;;;;;;;1.57;0.90;;;16.30;99.90;;;;;;5073573;28;20510;-47
2021/10/21 11:28:05;;;;;;;1.90;0.90;;;16.30;99.90;;;;;;5091058;28;20577;-48
2021/10/21 11:30:34;;;;;;;4.70;1.27;;;16.30;99.90;;;;;;5073359;28;20512;-48
2021/10/21 11:33:04;;;;;;;2.50;0.73;;;16.30;99.90;;;;;;5091258;28;20502;-46
2021/10/21 11:35:34;;;;;;;2.77;0.97;;;16.30;99.90;;;;;;5090248;28;20431;-45
2021/10/21 11:38:02;;;;;;;1.77;1.07;;;16.30;99.80;;;;;;5090567;28;20459;-47
2021/10/21 11:40:32;;;;;;;1.10;0.70;;;16.20;99.90;;;;;;5091533;28;20448;-47
2021/10/21 11:43:02;;;;;;;1.60;0.60;;;16.20;99.90;;;;;;5091092;28;20596;-47
2021/10/21 11:45:33;;;;;;;1.50;0.70;;;16.20;99.90;;;;;;5091976;28;20874;-48
2021/10/21 11:48:02;;;;;;;2.67;1.50;;;16.10;99.90;;;;;;5073228;28;20456;-47
2021/10/21 11:50:42;;;;;;;1.60;0.97;;;16.00;99.90;;;;;;5092743;28;20437;-48
2021/10/21 11:53:13;;;;;;;3.70;1.20;;;16.00;99.90;;;;;;5091340;28;20473;-48
2021/10/21 11:55:43;;;;;;;2.53;1.67;;;16.40;99.90;;;;;;5091131;28;20429;-48
2021/10/21 11:58:25;;;;;;;5.63;1.60;;;15.90;99.90;;;;;;5090880;28;20417;-47
2021/10/21 12:00:56;;;;;;;2.67;1.40;;;15.80;99.90;;;;;;5091519;28;20436;-47
2021/10/21 12:03:30;;;;;;;1.63;1.00;;;15.80;99.90;;;;;;5091365;28;20520;-48
2021/10/21 12:06:00;;;;;;;5.10;1.03;;;15.80;99.90;;;;;;5073116;28;20531;-48
2021/10/21 12:08:27;;;;;;;5.43;1.00;;;15.80;99.90;;;;;;5090615;28;20540;-47
2021/10/21 12:10:59;;;;;;;2.30;1.43;;;15.80;99.90;;;;;;5091278;28;20456;-47
2021/10/21 12:13:32;;;;;;;3.83;1.00;;;15.80;99.90;;;;;;5091126;28;21031;-47
2021/10/21 12:16:02;;;;;;;2.13;0.90;;;15.80;99.90;;;;;;5091343;28;20534;-48
2021/10/21 12:18:31;;;;;;;3.30;1.57;;;15.90;99.90;;;;;;5090393;28;20977;-48
2021/10/21 12:21:02;;;;;;;4.63;1.10;;;16.00;99.90;;;;;;5072508;28;20449;-47
2021/10/21 12:23:31;;;;;;;1.73;1.00;;;16.10;99.90;;;;;;5072846;28;20483;-48
2021/10/21 12:26:02;;;;;;;7.23;1.67;;;16.20;99.80;;;;;;5091365;28;20799;-47
2021/10/21 12:28:40;;;;;;;4.30;1.53;;;16.20;99.40;;;;;;5072373;28;20548;-47
2021/10/21 12:31:22;;;;;;;2.97;1.20;;;16.20;99.40;;;;;;5091178;28;20459;-47
2021/10/21 12:33:54;;;;;;;3.87;1.40;;;16.20;98.90;;;;;;5072220;28;20502;-47
2021/10/21 12:36:23;;;;;;;8.53;1.80;;;16.10;98.80;;;;;;5072774;28;20490;-47
2021/10/21 12:38:53;;;;;;;4.53;2.10;;;16.00;98.90;;;;;;5090308;28;20438;-48
2021/10/21 12:41:20;;;;;;;4.93;2.10;;;15.90;98.60;;;;;;5091900;28;20796;-47
2021/10/21 12:44:05;;;;;;;4.10;1.60;;;15.90;98.60;;;;;;5091562;28;20528;-47
2021/10/21 12:46:32;;;;;;;7.00;1.50;;;15.90;98.70;;;;;;5071218;28;20484;-47
2021/10/21 12:49:10;;;;;;;3.03;1.70;;;15.90;98.70;;;;;;5074964;28;20588;-46
2021/10/21 12:51:38;;;;;;;2.33;1.50;;;15.90;98.50;;;;;;5094621;28;20994;-46
2021/10/21 12:54:05;;;;;;;4.43;1.40;;;15.90;98.30;;;;;;5075744;28;20484;-48
2021/10/21 12:56:33;;;;;;;4.13;1.67;;;15.90;98.10;;;;;;5076171;28;20974;-49
2021/10/21 12:59:02;;;;;;;3.10;1.20;;;15.90;98.00;;;;;;5094185;28;20494;-48